Time;durP1;ratioP1;P1;durP2;ratioP2;P2;SDS_P1;SDS_P2;PMS_P1;PMS_P2;Temp;Humidity;BMP_temperature;BMP_pressure;BME280_temperature;BME280_humidity;BME280_pressure;Samples;Min_cycle;Max_cycle;Signal;HPM_P1;HPM_P2
2022/03/24 00:02:06;;;;;;;;;50.25;38.25;;;;;13.82;31.47;102282.50;5041135;28;45411;-83
2022/03/24 00:04:32;;;;;;;;;53.25;40.50;;;;;14.01;31.61;102324.31;5040642;28;44770;-82
2022/03/24 00:07:00;;;;;;;;;46.00;34.75;;;;;13.75;31.53;102284.31;5040905;28;46655;-83
2022/03/24 00:09:38;;;;;;;;;52.00;39.50;;;;;13.94;32.57;102311.28;5046271;28;47562;-82
2022/03/24 00:12:06;;;;;;;;;52.75;40.00;;;;;13.93;33.72;102312.31;5045279;28;45450;-83
2022/03/24 00:14:31;;;;;;;;;56.00;43.25;;;;;13.90;34.17;102315.47;5060019;28;45709;-83
2022/03/24 00:16:57;;;;;;;;;50.00;40.50;;;;;13.84;34.89;102320.91;5063176;28;45296;-85
2022/03/24 00:19:23;;;;;;;;;51.25;41.00;;;;;13.50;35.28;102262.59;5059479;28;45463;-83
2022/03/24 00:21:49;;;;;;;;;52.25;42.00;;;;;13.74;36.36;102311.03;5056194;28;45403;-82
2022/03/24 00:24:19;;;;;;;;;54.25;41.00;;;;;13.44;36.54;102266.06;5056726;28;45374;-83
2022/03/24 00:26:45;;;;;;;;;51.00;42.25;;;;;13.41;36.89;102275.59;5077226;27;46228;-83
2022/03/24 00:29:10;;;;;;;;;52.75;42.50;;;;;13.56;36.68;102300.41;5057014;28;45539;-82
2022/03/24 00:31:36;;;;;;;;;54.00;43.25;;;;;13.30;37.49;102266.91;5035669;28;45381;-83
2022/03/24 00:34:05;;;;;;;;;52.00;41.75;;;;;13.17;37.31;102245.53;5072898;27;45899;-82
2022/03/24 00:36:31;;;;;;;;;54.50;42.75;;;;;13.39;38.72;102298.88;5055570;28;46236;-82
2022/03/24 00:38:57;;;;;;;;;48.50;39.25;;;;;13.34;38.56;102293.09;5072425;28;46303;-82
2022/03/24 00:41:23;;;;;;;;;51.75;41.50;;;;;13.29;38.75;102287.25;5055325;28;45795;-83
2022/03/24 00:43:49;;;;;;;;;55.00;43.25;;;;;13.24;38.62;102291.41;5053375;28;45452;-80
2022/03/24 00:46:23;;;;;;;;;51.00;40.75;;;;;12.67;38.74;102212.16;5042843;28;46151;-84
2022/03/24 00:48:50;;;;;;;;;56.25;40.75;;;;;13.10;39.48;102289.50;5022987;28;46693;-82
2022/03/24 00:51:15;;;;;;;;;49.25;40.50;;;;;13.05;38.94;102291.94;5033234;28;45562;-82
2022/03/24 00:53:42;;;;;;;;;52.25;39.50;;;;;13.00;39.33;102297.19;5034190;28;45591;-82
2022/03/24 00:56:10;;;;;;;;;52.50;42.00;;;;;12.70;39.16;102247.56;5032051;28;46008;-82
2022/03/24 00:58:38;;;;;;;;;54.50;43.25;;;;;12.75;39.49;102263.50;5033860;28;45716;-83
2022/03/24 01:01:04;;;;;;;;;53.25;42.75;;;;;12.57;39.61;102233.56;5033034;28;45861;-83
2022/03/24 01:03:30;;;;;;;;;54.75;42.00;;;;;12.79;39.67;102282.22;5017023;28;45560;-83
2022/03/24 01:05:56;;;;;;;;;55.00;42.75;;;;;12.75;39.83;102286.38;5033675;28;45938;-80
2022/03/24 01:08:22;;;;;;;;;55.00;41.00;;;;;12.53;40.20;102250.44;5032640;28;45711;-81
2022/03/24 01:10:48;;;;;;;;;53.75;41.75;;;;;12.55;40.37;102264.03;5033928;28;45834;-85
2022/03/24 01:13:15;;;;;;;;;50.75;39.00;;;;;12.54;40.52;102274.19;5033655;28;45736;-81
2022/03/24 01:15:45;;;;;;;;;50.75;39.00;;;;;12.60;40.49;102282.72;5037107;28;45515;-80
2022/03/24 01:18:14;;;;;;;;;45.75;36.75;;;;;12.23;40.43;102226.59;5041717;28;47190;-81
2022/03/24 01:20:41;;;;;;;;;51.50;41.25;;;;;12.42;40.28;102252.78;5034880;28;45729;-81
2022/03/24 01:23:07;;;;;;;;;55.00;43.50;;;;;12.49;40.46;102276.63;5034314;28;45501;-83
2022/03/24 01:25:33;;;;;;;;;54.75;42.75;;;;;12.48;40.33;102280.41;5033982;28;45818;-82
2022/03/24 01:27:58;;;;;;;;;50.25;41.50;;;;;11.93;40.62;102193.47;5034405;28;46700;-83
2022/03/24 01:30:24;;;;;;;;;53.25;42.50;;;;;12.14;40.37;102226.69;5035860;28;45464;-80
2022/03/24 01:32:50;;;;;;;;;37.00;31.00;;;;;12.40;40.57;102277.72;5040641;28;45430;-82
2022/03/24 01:35:16;;;;;;;;;50.25;40.00;;;;;12.19;41.02;102237.97;5072879;28;46004;-81
2022/03/24 01:37:42;;;;;;;;;48.50;40.50;;;;;12.33;40.97;102274.00;5062170;28;46486;-81
2022/03/24 01:40:10;;;;;;;;;48.25;38.50;;;;;12.30;40.88;102260.59;5057687;28;45420;-81
2022/03/24 01:42:37;;;;;;;;;47.50;38.25;;;;;12.15;40.93;102236.63;5042266;28;45441;-83
2022/03/24 01:45:04;;;;;;;;;50.25;39.25;;;;;12.30;41.16;102260.59;5039195;28;46034;-81
2022/03/24 01:47:30;;;;;;;;;48.75;39.00;;;;;12.28;40.77;102258.03;5036060;28;46806;-83
2022/03/24 01:49:58;;;;;;;;;50.00;38.50;;;;;12.28;40.86;102260.78;5049314;28;45458;-83
2022/03/24 01:52:25;;;;;;;;;47.50;39.00;;;;;12.27;41.18;102263.72;5031736;28;45816;-84
2022/03/24 01:54:56;;;;;;;;;49.50;38.00;;;;;12.20;41.34;102255.34;5048620;28;45568;-83
2022/03/24 01:57:25;;;;;;;;;56.50;43.50;;;;;12.08;41.49;102232.91;5032496;28;45876;-81
2022/03/24 01:59:52;;;;;;;;;56.75;44.00;;;;;12.16;41.44;102254.84;5032945;28;45627;-83
2022/03/24 02:02:17;;;;;;;;;52.50;42.00;;;;;12.18;41.31;102255.53;5032538;28;45805;-82
2022/03/24 02:04:43;;;;;;;;;47.50;39.00;;;;;11.99;41.26;102234.88;5047775;28;45821;-81
2022/03/24 02:07:13;;;;;;;;;52.50;42.25;;;;;11.92;41.62;102233.84;5032370;28;46197;-81
2022/03/24 02:09:53;;;;;;;;;54.00;42.50;;;;;12.07;41.51;102249.59;5032448;28;45662;-83
2022/03/24 02:12:36;;;;;;;;;53.00;42.00;;;;;11.44;41.66;102153.41;5044388;28;45550;-82
2022/03/24 02:18:13;;;;;;;;;51.00;41.00;;;;;11.99;41.85;102247.72;5023187;28;45515;-81
2022/03/24 02:20:39;;;;;;;;;49.00;40.25;;;;;11.69;41.62;102192.59;5039180;28;45778;-83
2022/03/24 02:23:15;;;;;;;;;53.75;42.50;;;;;11.93;41.50;102249.34;5060738;28;44713;-81
2022/03/24 02:25:43;;;;;;;;;47.25;39.75;;;;;11.92;41.24;102246.75;5047879;28;44830;-82
2022/03/24 02:28:10;;;;;;;;;48.00;38.25;;;;;11.91;40.83;102247.75;5045391;28;47200;-81
2022/03/24 02:30:36;;;;;;;;;51.75;41.50;;;;;11.83;39.37;102249.50;5059227;28;45834;-80
2022/03/24 02:33:01;;;;;;;;;22.75;22.75;;;;;11.77;40.25;102231.00;5056065;28;45801;-81
2022/03/24 02:35:27;;;;;;;;;53.00;38.00;;;;;11.53;40.72;102192.69;5052693;28;46033;-81
2022/03/24 02:37:52;;;;;;;;;52.50;41.25;;;;;11.89;41.45;102247.09;5074983;28;45362;-81
2022/03/24 02:40:19;;;;;;;;;41.75;35.50;;;;;11.71;42.15;102219.88;5076201;28;45736;-81
2022/03/24 02:42:46;;;;;;;;;50.50;42.75;;;;;11.91;42.48;102250.50;5078504;28;45422;-83
2022/03/24 02:45:11;;;;;;;;;47.00;36.50;;;;;11.89;41.97;102247.09;5060699;28;46009;-80
2022/03/24 02:47:37;;;;;;;;;49.75;40.50;;;;;11.68;42.50;102218.34;5060534;28;45359;-82
2022/03/24 02:50:04;;;;;;;;;49.00;38.00;;;;;11.88;41.87;102256.38;5066966;28;45493;-82
2022/03/24 02:52:48;;;;;;;;;42.75;37.25;;;;;11.54;42.44;102198.00;5045484;28;45682;-81
2022/03/24 02:55:14;;;;;;;;;46.75;38.75;;;;;11.85;42.08;102252.09;5045348;28;45913;-81
2022/03/24 02:57:39;;;;;;;;;51.00;40.25;;;;;11.55;42.67;102207.06;5056820;28;45803;-84
2022/03/24 03:00:09;;;;;;;;;51.25;39.25;;;;;11.79;42.63;102250.91;5043724;28;45869;-83
2022/03/24 03:02:39;;;;;;;;;49.00;39.25;;;;;11.77;42.80;102247.50;5043411;28;45791;-83
2022/03/24 03:05:05;;;;;;;;;52.75;40.50;;;;;11.75;42.53;102255.06;5051036;28;45715;-80
2022/03/24 03:07:32;;;;;;;;;51.00;40.00;;;;;11.35;42.47;102185.53;5048949;28;46780;-81
2022/03/24 03:09:57;;;;;;;;;52.75;40.00;;;;;11.71;42.85;102242.72;5052838;28;45467;-79
2022/03/24 03:12:26;;;;;;;;;54.25;42.00;;;;;11.62;42.30;102236.41;5067018;28;45256;-79
2022/03/24 03:14:51;;;;;;;;;51.25;40.50;;;;;11.66;43.09;102254.25;5063418;28;45827;-80
2022/03/24 03:17:17;;;;;;;;;45.75;38.50;;;;;11.65;42.50;102246.19;5076502;28;45103;-81
2022/03/24 03:19:45;;;;;;;;;48.75;39.50;;;;;11.44;42.63;102220.16;5078489;28;44758;-80
2022/03/24 03:22:12;;;;;;;;;51.00;38.75;;;;;11.61;42.50;102251.16;5079034;28;45473;-82
2022/03/24 03:24:39;;;;;;;;;50.25;38.50;;;;;11.60;43.32;102248.59;5080809;28;44751;-83
2022/03/24 03:27:06;;;;;;;;;52.25;38.50;;;;;11.38;42.76;102220.88;5091239;28;47268;-80
2022/03/24 03:29:32;;;;;;;;;51.25;39.25;;;;;11.28;43.34;102206.50;5042569;28;45391;-83
2022/03/24 03:32:01;;;;;;;;;53.00;40.00;;;;;11.54;42.86;102254.81;5038104;28;45407;-83
2022/03/24 03:34:26;;;;;;;;;42.50;36.75;;;;;11.37;43.62;102235.66;5036182;28;45571;-81
2022/03/24 03:36:56;;;;;;;;;51.50;40.00;;;;;11.42;43.50;102240.59;5038743;28;47167;-82
2022/03/24 03:39:22;;;;;;;;;49.25;37.00;;;;;11.15;43.33;102200.72;5034244;28;45786;-81
2022/03/24 03:41:48;;;;;;;;;51.00;38.50;;;;;11.45;43.22;102254.84;5052686;28;46040;-83
2022/03/24 03:44:13;;;;;;;;;47.00;38.50;;;;;11.42;43.40;102252.47;5050548;28;47115;-83
2022/03/24 03:46:39;;;;;;;;;49.25;40.50;;;;;11.39;43.24;102249.19;5038619;28;46312;-83
2022/03/24 03:49:08;;;;;;;;;46.25;38.50;;;;;11.38;43.50;102247.50;5041578;28;45596;-82
2022/03/24 03:51:37;;;;;;;;;48.50;37.75;;;;;11.35;42.97;102248.72;5035832;28;45867;-80
2022/03/24 03:54:04;;;;;;;;;49.00;40.75;;;;;11.25;43.16;102237.91;5041696;28;45898;-82
2022/03/24 03:56:30;;;;;;;;;49.75;38.25;;;;;11.31;43.30;102255.59;5038294;28;45731;-82
2022/03/24 03:58:56;;;;;;;;;51.75;37.50;;;;;11.29;43.10;102258.50;5037078;28;45790;-82
2022/03/24 04:01:21;;;;;;;;;40.25;34.75;;;;;11.12;42.83;102230.25;5040024;28;45489;-82
2022/03/24 04:03:48;;;;;;;;;48.50;38.75;;;;;11.27;43.25;102254.22;5034369;28;46097;-82
2022/03/24 04:06:14;;;;;;;;;47.25;40.25;;;;;11.26;42.93;102255.28;5033887;28;45832;-81
2022/03/24 04:08:42;;;;;;;;;49.00;35.50;;;;;11.22;43.44;102251.16;5032532;28;45773;-83
2022/03/24 04:11:09;;;;;;;;;51.25;39.50;;;;;11.20;43.35;102247.75;5032471;28;45705;-84
2022/03/24 04:13:39;;;;;;;;;48.75;39.75;;;;;11.21;43.75;102254.94;5031125;28;47136;-83
2022/03/24 04:16:06;;;;;;;;;50.00;40.75;;;;;11.20;44.00;102254.09;5034246;28;45469;-82
2022/03/24 04:18:32;;;;;;;;;50.75;40.00;;;;;11.04;43.74;102235.75;5033180;28;45474;-81
2022/03/24 04:20:58;;;;;;;;;50.50;39.00;;;;;11.17;43.62;102248.06;5035138;28;45593;-83
2022/03/24 04:23:23;;;;;;;;;48.25;37.00;;;;;11.15;43.88;102255.63;5033973;28;46177;-82
2022/03/24 04:25:49;;;;;;;;;48.75;39.75;;;;;11.13;43.88;102256.66;5052158;28;48000;-81
2022/03/24 04:28:17;;;;;;;;;48.25;38.50;;;;;11.04;44.13;102238.50;5053851;28;45486;-80
2022/03/24 04:30:43;;;;;;;;;51.75;40.50;;;;;11.12;44.27;102248.59;5025252;28;45809;-83
2022/03/24 04:33:09;;;;;;;;;51.50;40.75;;;;;11.04;44.62;102240.41;5034139;28;45870;-82
2022/03/24 04:35:35;;;;;;;;;51.25;40.25;;;;;11.07;44.33;102248.28;5053701;28;45554;-80
2022/03/24 04:38:00;;;;;;;;;53.50;42.25;;;;;10.90;44.36;102223.59;5036251;28;45681;-80
2022/03/24 04:40:26;;;;;;;;;50.50;40.25;;;;;10.92;44.36;102229.75;5054609;28;45757;-80
2022/03/24 04:42:53;;;;;;;;;48.50;39.00;;;;;11.01;44.33;102238.84;5035907;28;47212;-80
2022/03/24 04:45:21;;;;;;;;;49.00;37.00;;;;;11.01;44.47;102249.81;5052527;28;45763;-79
2022/03/24 04:47:48;;;;;;;;;52.50;42.00;;;;;10.94;44.62;102243.31;5053823;28;45510;-81
2022/03/24 04:50:16;;;;;;;;;51.50;39.50;;;;;10.89;44.59;102235.59;5036286;28;45430;-82
2022/03/24 04:52:42;;;;;;;;;53.50;41.00;;;;;10.93;44.77;102236.13;5054317;28;45758;-80
2022/03/24 04:55:12;;;;;;;;;50.75;38.75;;;;;10.85;44.85;102223.25;5052668;28;48308;-81
2022/03/24 04:57:38;;;;;;;;;49.25;40.75;;;;;10.98;44.46;102246.59;5070204;28;45416;-81
2022/03/24 05:00:05;;;;;;;;;51.00;39.25;;;;;10.99;44.50;102251.91;5037800;28;45536;-82
2022/03/24 05:02:32;;;;;;;;;48.75;40.25;;;;;10.87;44.57;102226.69;5054118;28;45488;-80
2022/03/24 05:05:01;;;;;;;;;54.75;43.50;;;;;10.95;44.59;102240.41;5035625;28;45819;-82
2022/03/24 05:07:27;;;;;;;;;58.75;46.00;;;;;10.92;44.21;102248.13;5037685;28;45799;-83
2022/03/24 05:09:53;;;;;;;;;48.00;39.50;;;;;10.87;44.66;102243.16;5037342;28;45501;-81
2022/03/24 05:12:21;;;;;;;;;54.75;42.00;;;;;10.85;45.06;102242.47;5038488;28;46020;-83
2022/03/24 05:14:48;;;;;;;;;46.00;39.75;;;;;10.73;44.92;102236.50;5039259;28;48534;-82
2022/03/24 05:17:14;;;;;;;;;55.50;43.75;;;;;10.83;45.10;102247.28;5038635;28;45407;-82
2022/03/24 05:19:40;;;;;;;;;54.00;41.50;;;;;10.82;44.07;102250.19;5056723;28;45583;-82
2022/03/24 05:22:06;;;;;;;;;52.50;39.75;;;;;10.81;44.25;102245.72;5055817;28;45520;-82
2022/03/24 05:24:31;;;;;;;;;49.25;39.75;;;;;10.70;44.69;102242.34;5036563;28;45777;-81
2022/03/24 05:26:57;;;;;;;;;55.50;38.50;;;;;10.60;43.51;102227.94;5055205;28;45513;-82
2022/03/24 05:29:23;;;;;;;;;53.00;41.25;;;;;10.76;43.07;102257.22;5053821;28;45762;-80
2022/03/24 05:31:48;;;;;;;;;53.50;41.00;;;;;10.67;43.64;102242.66;5056503;28;45535;-82
2022/03/24 05:34:14;;;;;;;;;56.75;44.50;;;;;10.66;44.21;102243.72;5062485;28;45692;-80
2022/03/24 05:36:40;;;;;;;;;57.25;42.00;;;;;10.76;44.41;102257.22;5077327;28;45374;-82
2022/03/24 05:39:05;;;;;;;;;56.00;41.00;;;;;10.47;44.43;102202.91;5075109;28;45431;-80
2022/03/24 05:41:33;;;;;;;;;52.00;42.75;;;;;10.67;43.59;102234.44;5075290;28;45650;-82
2022/03/24 05:44:06;;;;;;;;;52.25;39.50;;;;;10.78;43.22;102258.78;5075378;28;45677;-83
2022/03/24 05:46:38;;;;;;;;;55.75;41.00;;;;;10.60;43.17;102230.69;5077410;28;45781;-81
2022/03/24 05:49:09;;;;;;;;;53.50;43.25;;;;;10.82;43.76;102252.94;5076368;28;45364;-83
2022/03/24 05:51:35;;;;;;;;;50.25;41.00;;;;;10.55;43.17;102216.63;5044194;28;47169;-80
2022/03/24 05:54:01;;;;;;;;;51.00;41.50;;;;;10.66;42.96;102219.03;5034046;28;46686;-82
2022/03/24 05:56:29;;;;;;;;;49.50;37.00;;;;;10.80;42.21;102224.84;5054129;28;45490;-81
2022/03/24 05:58:56;;;;;;;;;49.25;39.50;;;;;11.02;41.73;102239.69;5059095;28;45857;-81
2022/03/24 06:01:24;;;;;;;;;54.00;42.50;;;;;11.29;41.45;102264.00;5055302;28;45355;-82
2022/03/24 06:03:51;;;;;;;;;53.00;43.00;;;;;11.15;41.17;102203.47;5060293;28;45606;-80
2022/03/24 06:06:17;;;;;;;;;53.75;43.00;;;;;11.72;40.63;102268.31;5040762;28;45434;-82
2022/03/24 06:08:43;;;;;;;;;50.25;37.75;;;;;11.82;40.08;102239.53;5058686;28;45465;-82
2022/03/24 06:11:15;;;;;;;;;46.75;36.00;;;;;12.22;39.32;102269.78;5040500;28;46086;-80
2022/03/24 06:13:41;;;;;;;;;48.25;38.50;;;;;12.33;38.91;102263.81;5058911;28;45783;-82
2022/03/24 06:16:08;;;;;;;;;51.75;40.25;;;;;12.41;39.21;102256.56;5058680;28;45521;-82
2022/03/24 06:18:35;;;;;;;;;49.75;38.50;;;;;11.97;39.06;102179.19;5063453;28;45362;-82
2022/03/24 06:21:02;;;;;;;;;51.25;40.25;;;;;12.26;38.70;102224.38;5061409;28;46132;-82
2022/03/24 06:23:27;;;;;;;;;48.50;40.00;;;;;12.14;38.71;102209.31;5061263;28;47669;-82
2022/03/24 06:25:53;;;;;;;;;53.50;42.00;;;;;12.56;38.19;102259.38;5063220;28;45480;-83
2022/03/24 06:28:19;;;;;;;;;53.00;40.75;;;;;12.59;38.13;102270.88;5069629;28;45519;-83
2022/03/24 06:30:44;;;;;;;;;49.75;40.00;;;;;12.52;38.18;102237.72;5063953;28;45416;-81
2022/03/24 06:33:10;;;;;;;;;48.50;39.00;;;;;12.40;37.86;102222.69;5054782;28;45553;-77
2022/03/24 06:35:36;;;;;;;;;45.75;37.00;;;;;12.68;37.98;102261.50;5047809;28;44869;-83
2022/03/24 06:38:02;;;;;;;;;49.25;37.50;;;;;13.01;37.67;102266.69;5031124;28;45462;-76
2022/03/24 06:40:28;;;;;;;;;50.00;38.75;;;;;13.61;36.42;102261.22;5032233;28;45289;-76
2022/03/24 06:42:54;;;;;;;;;43.25;34.00;;;;;14.19;35.03;102243.88;5031191;28;47396;-85
2022/03/24 06:45:20;;;;;;;;;46.00;38.50;;;;;14.94;34.59;102263.69;5214483;22;45641;-78
2022/03/24 06:48:34;;;;;;;;;50.50;37.25;;;;;15.65;33.09;102263.50;5069905;28;45226;-86
2022/03/24 06:57:48;;;;;;;;;48.00;37.33;;;;;17.73;29.34;102261.69;5008642;28;45526;-71
2022/03/24 07:00:15;;;;;;;;;53.00;40.00;;;;;18.28;28.62;102269.56;5010489;28;45518;-73
2022/03/24 07:02:45;;;;;;;;;49.33;37.67;;;;;18.73;29.05;102270.53;5045176;28;45742;-73
2022/03/24 07:05:13;;;;;;;;;36.33;34.00;;;;;19.28;27.61;102267.94;5085410;27;46656;-74
2022/03/24 07:07:40;;;;;;;;;44.00;35.00;;;;;19.48;27.22;102280.78;5053129;28;45554;-73
2022/03/24 07:10:06;;;;;;;;;38.33;31.33;;;;;19.76;26.37;102277.44;5048040;28;45917;-76
2022/03/24 07:12:32;;;;;;;;;44.33;35.33;;;;;19.91;26.10;102277.91;5043168;28;46487;-73
2022/03/24 07:14:57;;;;;;;;;41.67;34.67;;;;;20.16;25.76;102285.28;5048107;28;45717;-75
2022/03/24 07:17:23;;;;;;;;;42.33;36.00;;;;;20.56;25.42;102279.13;5039631;28;47470;-73
2022/03/24 07:19:49;;;;;;;;;44.00;35.33;;;;;21.14;25.16;102273.91;5044110;28;46491;-72
2022/03/24 07:22:14;;;;;;;;;49.67;36.00;;;;;21.52;24.43;102280.91;5051276;27;45746;-73
2022/03/24 07:24:40;;;;;;;;;48.33;36.33;;;;;21.72;24.17;102279.66;5060749;27;47807;-74
2022/03/24 07:27:06;;;;;;;;;38.00;33.00;;;;;22.03;23.62;102276.41;5053593;27;45528;-74
2022/03/24 07:29:31;;;;;;;;;43.33;32.67;;;;;22.20;23.53;102276.47;5046313;28;45914;-73
2022/03/24 07:31:57;;;;;;;;;49.00;36.00;;;;;21.69;23.92;102276.28;5042456;28;46663;-73
2022/03/24 07:34:23;;;;;;;;;40.00;34.33;;;;;20.92;24.36;102288.41;5042282;28;45604;-74
2022/03/24 07:36:48;;;;;;;;;39.67;33.33;;;;;20.36;25.07;102278.56;5039069;27;45715;-73
2022/03/24 07:39:15;;;;;;;;;43.00;34.67;;;;;19.66;25.49;102286.31;5045433;28;45591;-73
2022/03/24 07:41:40;;;;;;;;;50.00;38.00;;;;;19.02;26.38;102280.16;5047735;28;45402;-74
2022/03/24 07:44:06;;;;;;;;;50.67;40.00;;;;;18.51;27.14;102291.19;5049604;27;46622;-72
2022/03/24 07:46:32;;;;;;;;;32.33;23.67;;;;;18.07;27.91;102292.97;5044304;28;45717;-73
2022/03/24 07:48:57;;;;;;;;;44.00;35.00;;;;;17.67;28.04;102290.34;5048607;27;45567;-74
2022/03/24 07:51:23;;;;;;;;;37.00;32.67;;;;;17.27;28.01;102288.50;5027209;28;46153;-75
2022/03/24 07:53:48;;;;;;;;;38.00;36.00;;;;;17.02;28.22;102293.88;5039406;28;45945;-72
2022/03/24 07:56:18;;;;;;;;;42.33;32.33;;;;;16.80;28.95;102300.69;5042002;28;46023;-74
2022/03/24 07:58:44;;;;;;;;;45.00;36.67;;;;;16.59;29.57;102303.41;5042920;27;45898;-73
2022/03/24 08:01:13;;;;;;;;;35.33;32.33;;;;;16.44;29.99;102299.97;5048066;28;45446;-74
2022/03/24 08:03:39;;;;;;;;;41.67;35.33;;;;;16.35;30.31;102296.56;5037283;28;47226;-73
2022/03/24 08:06:05;;;;;;;;;41.67;37.00;;;;;16.27;30.60;102302.25;5049203;28;45644;-71
2022/03/24 08:08:31;;;;;;;;;45.33;36.67;;;;;16.22;30.46;102299.28;5049053;28;45930;-73
2022/03/24 08:10:58;;;;;;;;;43.00;36.75;;;;;16.21;30.29;102303.97;5049787;27;45756;-75
2022/03/24 08:13:24;;;;;;;;;49.00;37.00;;;;;16.17;30.95;102297.16;5044257;28;46178;-75
2022/03/24 08:15:50;;;;;;;;;44.67;36.00;;;;;16.14;30.86;102303.09;5051506;28;45817;-74
2022/03/24 08:18:17;;;;;;;;;48.00;37.00;;;;;16.17;30.94;102304.59;5051797;28;45648;-74
2022/03/24 08:20:43;;;;;;;;;43.25;36.75;;;;;16.19;30.81;102305.25;5046879;28;46012;-74
2022/03/24 08:23:11;;;;;;;;;51.75;39.25;;;;;16.21;31.05;102303.97;5047308;28;46289;-74
2022/03/24 08:25:38;;;;;;;;;42.33;36.00;;;;;16.23;31.03;102310.16;5047046;28;45880;-74
2022/03/24 08:28:05;;;;;;;;;43.00;37.00;;;;;16.23;30.96;102306.53;5050772;28;45657;-73
2022/03/24 08:30:32;;;;;;;;;25.00;23.33;;;;;16.25;30.61;102307.16;5050767;28;45450;-73
2022/03/24 08:32:58;;;;;;;;;43.67;35.33;;;;;16.30;31.44;102312.06;5052616;28;46825;-73
2022/03/24 08:35:24;;;;;;;;;49.33;36.33;;;;;16.33;31.61;102307.00;5041683;28;45371;-75
2022/03/24 08:37:50;;;;;;;;;53.75;40.00;;;;;16.38;31.08;102309.97;5048654;28;47212;-73
2022/03/24 08:40:15;;;;;;;;;50.33;40.67;;;;;16.43;31.09;102312.13;5048796;28;45528;-73
2022/03/24 08:42:43;;;;;;;;;52.25;38.25;;;;;16.41;31.37;102297.63;5044598;28;45648;-73
2022/03/24 08:45:11;;;;;;;;;45.00;37.33;;;;;16.56;31.29;102314.91;5052116;28;45485;-73
2022/03/24 08:47:37;;;;;;;;;46.33;34.33;;;;;16.60;31.19;102312.56;5055920;28;45454;-74
2022/03/24 08:50:05;;;;;;;;;47.25;37.50;;;;;16.65;30.74;102321.09;5049895;28;45829;-74
2022/03/24 08:52:30;;;;;;;;;37.67;34.00;;;;;16.67;30.52;102318.13;5034848;28;48335;-74
2022/03/24 08:54:56;;;;;;;;;47.33;39.33;;;;;16.73;30.44;102323.66;5027659;28;45591;-74
2022/03/24 08:57:28;;;;;;;;;50.50;39.50;;;;;16.70;30.64;102323.25;5037181;28;45676;-74
2022/03/24 08:59:55;;;;;;;;;43.00;36.33;;;;;16.68;30.42;102320.69;5050854;28;45711;-73
2022/03/24 09:02:21;;;;;;;;;47.67;37.00;;;;;16.70;30.52;102328.78;5050847;28;45707;-73
2022/03/24 09:04:47;;;;;;;;;39.00;34.00;;;;;16.70;30.14;102332.41;5050872;28;45797;-73
2022/03/24 09:07:13;;;;;;;;;36.33;31.33;;;;;16.75;29.42;102318.78;5051198;28;45721;-73
2022/03/24 09:09:40;;;;;;;;;44.00;36.33;;;;;16.79;29.78;102324.75;5050962;28;45498;-74
2022/03/24 09:12:06;;;;;;;;;51.33;37.00;;;;;16.74;29.73;102311.53;5050962;28;45938;-72
2022/03/24 09:14:32;;;;;;;;;46.33;37.00;;;;;16.91;29.64;102322.22;5047658;28;45816;-72
2022/03/24 09:16:57;;;;;;;;;45.33;37.00;;;;;17.06;29.78;102319.25;5049191;28;45355;-73
2022/03/24 09:19:23;;;;;;;;;39.33;33.33;;;;;17.29;30.07;102318.81;5050822;28;46022;-72
2022/03/24 09:21:48;;;;;;;;;40.67;34.67;;;;;18.17;29.43;102317.47;5058094;28;45892;-72
2022/03/24 09:24:14;;;;;;;;;38.33;29.67;;;;;19.63;26.41;102319.34;5061173;28;45714;-74
2022/03/24 09:26:39;;;;;;;;;42.33;35.00;;;;;21.21;24.66;102319.25;5051046;28;45836;-72
2022/03/24 09:29:05;;;;;;;;;34.33;31.33;;;;;22.69;22.79;102311.50;5064268;28;45726;-73
2022/03/24 09:31:30;;;;;;;;;43.33;34.67;;;;;23.94;21.44;102318.78;5055951;28;46212;-71
2022/03/24 09:33:56;;;;;;;;;38.00;31.67;;;;;25.31;20.97;102311.16;5040433;28;45717;-72
2022/03/24 09:36:22;;;;;;;;;39.33;33.00;;;;;26.69;19.29;102298.78;5065038;27;46025;-73
2022/03/24 09:38:47;;;;;;;;;40.67;33.67;;;;;27.89;18.20;102310.44;5061966;28;45816;-71
2022/03/24 09:41:14;;;;;;;;;33.67;31.00;;;;;28.94;17.08;102313.19;5069970;28;45806;-72
2022/03/24 09:43:41;;;;;;;;;37.33;32.00;;;;;29.80;16.28;102314.56;5058477;27;45904;-73
2022/03/24 09:46:08;;;;;;;;;37.33;32.67;;;;;30.67;15.71;102307.69;5055195;27;45505;-73
2022/03/24 09:48:34;;;;;;;;;43.33;33.00;;;;;31.43;14.90;102307.50;5065484;28;45741;-73
2022/03/24 09:50:59;;;;;;;;;37.00;31.67;;;;;32.20;14.09;102300.25;5066689;28;46726;-74
2022/03/24 09:53:33;;;;;;;;;36.00;32.67;;;;;32.64;14.27;102297.78;5060213;27;45670;-74
2022/03/24 09:55:59;;;;;;;;;34.33;29.33;;;;;33.19;13.91;102302.34;5067251;28;45818;-74
2022/03/24 09:58:26;;;;;;;;;40.00;34.33;;;;;33.58;12.92;102297.00;5061212;28;45638;-82
2022/03/24 10:00:52;;;;;;;;;44.00;34.33;;;;;33.69;12.74;102291.88;5054437;28;45792;-81
2022/03/24 10:03:21;;;;;;;;;39.67;31.33;;;;;34.09;12.93;102288.97;5052176;28;45618;-81
2022/03/24 10:06:02;;;;;;;;;41.67;32.00;;;;;34.68;12.78;102299.06;5048268;28;45790;-81
2022/03/24 10:08:29;;;;;;;;;40.67;31.33;;;;;35.12;12.08;102286.41;5054371;28;45823;-81
2022/03/24 10:11:04;;;;;;;;;38.00;30.67;;;;;35.37;12.34;102286.69;5054622;28;46690;-81
2022/03/24 10:13:53;;;;;;;;;39.00;32.00;;;;;35.73;12.43;102293.06;5054985;28;45555;-81
2022/03/24 10:16:34;;;;;;;;;35.67;32.00;;;;;35.93;12.31;102280.88;5065378;28;45342;-88
2022/03/24 10:19:09;;;;;;;;;35.33;33.00;;;;;35.90;12.34;102287.28;5088210;28;45840;-88
2022/03/24 10:21:38;;;;;;;;;35.00;32.67;;;;;36.17;11.75;102277.31;5076587;28;46984;-88
2022/03/24 10:24:09;;;;;;;;;42.67;33.67;;;;;36.60;11.21;102291.59;5096387;27;45391;-90
2022/03/24 10:26:49;;;;;;;;;37.00;32.33;;;;;37.03;11.10;102294.03;5068245;28;45480;-90
2022/03/24 10:29:19;;;;;;;;;40.67;33.67;;;;;37.14;10.43;102253.53;5087611;28;45693;-89
2022/03/24 10:31:53;;;;;;;;;36.00;30.67;;;;;37.04;10.56;102229.94;5067618;28;45501;-89
2022/03/24 10:34:46;;;;;;;;;39.67;29.67;;;;;37.37;11.56;102280.53;5061807;28;45919;-89
2022/03/24 10:37:17;;;;;;;;;29.33;28.00;;;;;36.98;10.87;102277.09;5059014;28;45525;-90
2022/03/24 10:40:06;;;;;;;;;40.67;32.67;;;;;36.86;10.78;102265.63;5064635;28;46110;-89
2022/03/24 10:42:40;;;;;;;;;34.67;29.00;;;;;36.62;11.02;102240.63;5070843;28;46933;-82
2022/03/24 10:45:24;;;;;;;;;46.00;36.67;;;;;36.49;11.37;102279.78;5067330;28;44929;-90
2022/03/24 10:47:49;;;;;;;;;36.67;29.67;;;;;36.42;10.82;102273.78;5070685;28;44822;-89
2022/03/24 10:50:41;;;;;;;;;31.00;25.67;;;;;36.17;11.04;102276.47;5065692;28;45962;-91
2022/03/24 10:53:25;;;;;;;;;34.33;31.33;;;;;35.52;11.36;102266.13;5080773;28;45441;-89
2022/03/24 10:56:45;;;;;;;;;38.00;33.33;;;;;35.04;11.50;102272.19;5072016;28;45549;-88
2022/03/24 10:59:11;;;;;;;;;40.67;33.33;;;;;35.09;11.74;102269.13;5069741;28;46126;-90
2022/03/24 11:01:57;;;;;;;;;40.67;30.67;;;;;34.71;11.62;102242.22;5071800;28;45648;-92
2022/03/24 11:04:23;;;;;;;;;35.33;31.67;;;;;34.40;11.52;102266.03;5066517;28;47154;-92
2022/03/24 11:06:53;;;;;;;;;34.33;32.00;;;;;33.91;12.25;102271.00;5068474;28;45203;-91
2022/03/24 11:10:14;;;;;;;;;;;;;;;;;;;;;
2022/03/24 11:12:43;;;;;;;;;40.67;31.33;;;;;32.38;13.15;102277.66;5046413;28;74249;-84
2022/03/24 11:15:09;;;;;;;;;33.33;32.00;;;;;31.68;13.54;102269.31;5055681;28;46571;-85
2022/03/24 11:17:39;;;;;;;;;33.67;30.33;;;;;31.03;14.47;102249.59;5043721;28;45716;-84
2022/03/24 11:20:20;;;;;;;;;45.00;34.67;;;;;30.53;13.83;102253.00;5042229;27;45916;-86
2022/03/24 11:22:51;;;;;;;;;35.00;30.00;;;;;30.03;14.87;102245.81;5051533;28;45523;-82
2022/03/24 11:25:18;;;;;;;;;37.33;32.00;;;;;29.48;14.97;102245.41;5053395;28;46282;-81